^^
Meteo Knjazevac Station Historical Data
Daily Summary for May 24, 2022 Units:  Both    English   Metric
Daily Weekly Monthly Yearly Custom
  High: Low: Average:
Temperature: 81.5 °F /  27.5 °C 58.3 °F /  14.6 °C 68.3 °F /  20.2 °C
Dew Point: 63.3 °F /  17.4 °C 51.6 °F /  10.9 °C 56.9 °F /  13.8 °C
Humidity: 83% 54% 68%
Wind Speed: 8mph /  12.9km/h - 2.5mph /  4km/h
Wind Gust: 16mph /  25.7km/h - -
Wind- - SSE
Pressure: 30.00 in /  1015.8 hPa 29.91 in /  1012.8 hPa -
Precipitation: 0.00 in /  0 mm    
Historical Graphs
 
 
Tabular Data for May 24, 2022
Time Temperature Dew Point Pressure Wind Wind Speed Wind Gust Humidity Rainfall Rate (Hourly) solar Conditions
00:00 62.1 °F /  16.7 °C 52.2 °F /  11.2 °C 29.92in /  1013.1hPa Calm   2mph /  3.2km/h 70% 0.00in /  0mm 0 W/m2
00:10 62.1 °F /  16.7 °C 52.9 °F /  11.6 °C 29.92in /  1013.1hPa West 1mph /  1.6km/h 3mph /  4.8km/h 72% 0.00in /  0mm 0 W/m2
00:20 61.9 °F /  16.6 °C 52.8 °F /  11.6 °C 29.92in /  1013.1hPa West 2mph /  3.2km/h 4mph /  6.4km/h 72% 0.00in /  0mm 0 W/m2
00:30 61.8 °F /  16.6 °C 52.7 °F /  11.5 °C 29.91in /  1012.8hPa WSW 1mph /  1.6km/h 3mph /  4.8km/h 72% 0.00in /  0mm 0 W/m2
00:40 61.7 °F /  16.5 °C 53 °F /  11.7 °C 29.92in /  1013.1hPa WNW 2mph /  3.2km/h 3mph /  4.8km/h 73% 0.00in /  0mm 0 W/m2
00:50 61.7 °F /  16.5 °C 53 °F /  11.7 °C 29.91in /  1012.8hPa Calm   3mph /  4.8km/h 73% 0.00in /  0mm 0 W/m2
01:00 61.7 °F /  16.5 °C 53 °F /  11.7 °C 29.92in /  1013.1hPa NNW 1mph /  1.6km/h 2mph /  3.2km/h 73% 0.00in /  0mm 0 W/m2
01:10 61.7 °F /  16.5 °C 53 °F /  11.7 °C 29.92in /  1013.1hPa NNW 1mph /  1.6km/h 2mph /  3.2km/h 73% 0.00in /  0mm 0 W/m2
01:20 61.5 °F /  16.4 °C 53.2 °F /  11.8 °C 29.92in /  1013.1hPa Calm   2mph /  3.2km/h 74% 0.00in /  0mm 0 W/m2
01:30 61.3 °F /  16.3 °C 53 °F /  11.7 °C 29.92in /  1013.1hPa WSW 1mph /  1.6km/h 2mph /  3.2km/h 74% 0.00in /  0mm 0 W/m2
01:40 61 °F /  16.1 °C 52.6 °F /  11.4 °C 29.92in /  1013.1hPa Calm   2mph /  3.2km/h 74% 0.00in /  0mm 0 W/m2
01:50 60.9 °F /  16.1 °C 52.9 °F /  11.6 °C 29.92in /  1013.1hPa Calm   1mph /  1.6km/h 75% 0.00in /  0mm 0 W/m2
02:00 60.8 °F /  16 °C 52.8 °F /  11.6 °C 29.92in /  1013.1hPa Calm   1mph /  1.6km/h 75% 0.00in /  0mm 0 W/m2
02:10 60.6 °F /  15.9 °C 52.6 °F /  11.4 °C 29.92in /  1013.1hPa Calm     75% 0.00in /  0mm 0 W/m2
02:20 60.4 °F /  15.8 °C 52.5 °F /  11.4 °C 29.92in /  1013.1hPa Calm   1mph /  1.6km/h 75% 0.00in /  0mm 0 W/m2
02:30 60.4 °F /  15.8 °C 52.5 °F /  11.4 °C 29.92in /  1013.1hPa Calm   1mph /  1.6km/h 75% 0.00in /  0mm 0 W/m2
02:40 60.4 °F /  15.8 °C 53.2 °F /  11.8 °C 29.92in /  1013.1hPa Calm   1mph /  1.6km/h 77% 0.00in /  0mm 0 W/m2
02:50 60.4 °F /  15.8 °C 53.2 °F /  11.8 °C 29.92in /  1013.1hPa Calm     77% 0.00in /  0mm 0 W/m2
03:00 60.6 °F /  15.9 °C 53.4 °F /  11.9 °C 29.92in /  1013.1hPa Calm   2mph /  3.2km/h 77% 0.00in /  0mm 0 W/m2
03:10 60.6 °F /  15.9 °C 53.4 °F /  11.9 °C 29.92in /  1013.1hPa NE 1mph /  1.6km/h 3mph /  4.8km/h 77% 0.00in /  0mm 0 W/m2
03:20 60.6 °F /  15.9 °C 53.4 °F /  11.9 °C 29.92in /  1013.1hPa NNE 2mph /  3.2km/h 2mph /  3.2km/h 77% 0.00in /  0mm 0 W/m2
03:30 60.6 °F /  15.9 °C 53.4 °F /  11.9 °C 29.92in /  1013.1hPa Calm   2mph /  3.2km/h 77% 0.00in /  0mm 0 W/m2
03:40 60.4 °F /  15.8 °C 53.5 °F /  11.9 °C 29.92in /  1013.1hPa Calm   2mph /  3.2km/h 78% 0.00in /  0mm 0 W/m2
03:50 60.3 °F /  15.7 °C 53.4 °F /  11.9 °C 29.92in /  1013.1hPa Calm   2mph /  3.2km/h 78% 0.00in /  0mm 0 W/m2
04:00 60.2 °F /  15.7 °C 53.3 °F /  11.8 °C 29.93in /  1013.4hPa Calm   2mph /  3.2km/h 78% 0.00in /  0mm 0 W/m2
04:10 60.1 °F /  15.6 °C 53.2 °F /  11.8 °C 29.92in /  1013.1hPa Calm   2mph /  3.2km/h 78% 0.00in /  0mm 0 W/m2
04:20 60.1 °F /  15.6 °C 53.5 °F /  11.9 °C 29.92in /  1013.1hPa Calm   2mph /  3.2km/h 79% 0.00in /  0mm 0 W/m2
04:30 60.1 °F /  15.6 °C 53.2 °F /  11.8 °C 29.92in /  1013.1hPa Calm     78% 0.00in /  0mm 0 W/m2
04:40 59.7 °F /  15.4 °C 53.1 °F /  11.7 °C 29.92in /  1013.1hPa NNE 1mph /  1.6km/h 2mph /  3.2km/h 79% 0.00in /  0mm 0 W/m2
04:50 59.2 °F /  15.1 °C 52.7 °F /  11.5 °C 29.93in /  1013.4hPa NNE 2mph /  3.2km/h 3mph /  4.8km/h 79% 0.00in /  0mm 0 W/m2
05:00 58.8 °F /  14.9 °C 52.3 °F /  11.3 °C 29.93in /  1013.4hPa North 1mph /  1.6km/h 3mph /  4.8km/h 79% 0.00in /  0mm 3 W/m2
05:10 58.5 °F /  14.7 °C 52.3 °F /  11.3 °C 29.93in /  1013.4hPa North 1mph /  1.6km/h 2mph /  3.2km/h 80% 0.00in /  0mm 8 W/m2
05:20 58.5 °F /  14.7 °C 52.6 °F /  11.4 °C 29.93in /  1013.4hPa Calm   2mph /  3.2km/h 81% 0.00in /  0mm 14 W/m2
05:30 58.3 °F /  14.6 °C 52.5 °F /  11.4 °C 29.94in /  1013.8hPa Calm   2mph /  3.2km/h 81% 0.00in /  0mm 22 W/m2
05:40 58.3 °F /  14.6 °C 53.1 °F /  11.7 °C 29.94in /  1013.8hPa NNE 2mph /  3.2km/h 5mph /  8km/h 83% 0.00in /  0mm 33 W/m2
05:50 58.5 °F /  14.7 °C 53.3 °F /  11.8 °C 29.94in /  1013.8hPa NNE 1mph /  1.6km/h 4mph /  6.4km/h 83% 0.00in /  0mm 42 W/m2
06:00 58.5 °F /  14.7 °C 52.3 °F /  11.3 °C 29.95in /  1014.1hPa Calm   5mph /  8km/h 80% 0.00in /  0mm 46 W/m2
06:10 58.6 °F /  14.8 °C 51.8 °F /  11 °C 29.95in /  1014.1hPa NE 3mph /  4.8km/h 7mph /  11.3km/h 78% 0.00in /  0mm 50 W/m2
06:20 58.6 °F /  14.8 °C 51.8 °F /  11 °C 29.95in /  1014.1hPa NNE 1mph /  1.6km/h 6mph /  9.7km/h 78% 0.00in /  0mm 61 W/m2
06:30 58.5 °F /  14.7 °C 51.6 °F /  10.9 °C 29.96in /  1014.4hPa North 2mph /  3.2km/h 5mph /  8km/h 78% 0.00in /  0mm 84 W/m2
06:40 58.5 °F /  14.7 °C 51.6 °F /  10.9 °C 29.96in /  1014.4hPa NNE 1mph /  1.6km/h 9mph /  14.5km/h 78% 0.00in /  0mm 58 W/m2
06:50 58.6 °F /  14.8 °C 51.8 °F /  11 °C 29.97in /  1014.8hPa North 2mph /  3.2km/h 6mph /  9.7km/h 78% 0.00in /  0mm 89 W/m2
07:00 59 °F /  15 °C 52.1 °F /  11.2 °C 29.97in /  1014.8hPa North 1mph /  1.6km/h 7mph /  11.3km/h 78% 0.00in /  0mm 101 W/m2
07:10 59.4 °F /  15.2 °C 52.5 °F /  11.4 °C 29.97in /  1014.8hPa North 1mph /  1.6km/h 6mph /  9.7km/h 78% 0.00in /  0mm 215 W/m2
07:20 59.6 °F /  15.3 °C 52.4 °F /  11.3 °C 29.97in /  1014.8hPa NNE 3mph /  4.8km/h 10mph /  16.1km/h 77% 0.00in /  0mm 231 W/m2
07:30 59.9 °F /  15.5 °C 52.7 °F /  11.5 °C 29.97in /  1014.8hPa North 5mph /  8km/h 8mph /  12.9km/h 77% 0.00in /  0mm 269 W/m2
07:40 60.1 °F /  15.6 °C 52.8 °F /  11.6 °C 29.97in /  1014.8hPa NNE 3mph /  4.8km/h 9mph /  14.5km/h 77% 0.00in /  0mm 229 W/m2
07:50 60.3 °F /  15.7 °C 52.3 °F /  11.3 °C 29.97in /  1014.8hPa North 3mph /  4.8km/h 9mph /  14.5km/h 75% 0.00in /  0mm 228 W/m2
08:00 60.6 °F /  15.9 °C 52.6 °F /  11.4 °C 29.97in /  1014.8hPa North 5mph /  8km/h 8mph /  12.9km/h 75% 0.00in /  0mm 242 W/m2
08:10 61 °F /  16.1 °C 53 °F /  11.7 °C 29.97in /  1014.8hPa North 1mph /  1.6km/h 11mph /  17.7km/h 75% 0.00in /  0mm 228 W/m2
08:20 61.6 °F /  16.4 °C 53.6 °F /  12 °C 29.97in /  1014.8hPa NNE 3mph /  4.8km/h 9mph /  14.5km/h 75% 0.00in /  0mm 438 W/m2
08:30 62.9 °F /  17.2 °C 54.4 °F /  12.4 °C 29.97in /  1014.8hPa NNE 3mph /  4.8km/h 8mph /  12.9km/h 74% 0.00in /  0mm 453 W/m2
08:40 64 °F /  17.8 °C 54.8 °F /  12.7 °C 29.97in /  1014.8hPa North 5mph /  8km/h 12mph /  19.3km/h 72% 0.00in /  0mm 515 W/m2
08:50 64.9 °F /  18.3 °C 54.9 °F /  12.7 °C 29.97in /  1014.8hPa NNE 7mph /  11.3km/h 11mph /  17.7km/h 70% 0.00in /  0mm 516 W/m2
09:00 65.6 °F /  18.7 °C 55.1 °F /  12.8 °C 29.97in /  1014.8hPa NNE 3mph /  4.8km/h 10mph /  16.1km/h 69% 0.00in /  0mm 422 W/m2
09:10 65.8 °F /  18.8 °C 55 °F /  12.8 °C 29.97in /  1014.8hPa NNE 2mph /  3.2km/h 10mph /  16.1km/h 68% 0.00in /  0mm 301 W/m2
09:20 66.3 °F /  19.1 °C 55.4 °F /  13 °C 29.97in /  1014.8hPa North 3mph /  4.8km/h 10mph /  16.1km/h 68% 0.00in /  0mm 632 W/m2
09:30 67.1 °F /  19.5 °C 55.8 °F /  13.2 °C 29.97in /  1014.8hPa NNE 2mph /  3.2km/h 9mph /  14.5km/h 67% 0.00in /  0mm 697 W/m2
09:40 67.2 °F /  19.6 °C 55 °F /  12.8 °C 29.97in /  1014.8hPa NNE 2mph /  3.2km/h 8mph /  12.9km/h 65% 0.00in /  0mm 373 W/m2
09:50 67.6 °F /  19.8 °C 55.5 °F /  13.1 °C 29.96in /  1014.4hPa North 2mph /  3.2km/h 6mph /  9.7km/h 65% 0.00in /  0mm 573 W/m2
10:00 68.2 °F /  20.1 °C 55.1 °F /  12.8 °C 29.96in /  1014.4hPa NE 3mph /  4.8km/h 7mph /  11.3km/h 63% 0.00in /  0mm 671 W/m2
10:20 68.9 °F /  20.5 °C 56.2 °F /  13.4 °C 29.97in /  1014.8hPa NE 1mph /  1.6km/h 9mph /  14.5km/h 64% 0.00in /  0mm 483 W/m2
10:30 69.4 °F /  20.8 °C 56.3 °F /  13.5 °C 29.97in /  1014.8hPa North 2mph /  3.2km/h 7mph /  11.3km/h 63% 0.00in /  0mm 332 W/m2
10:40 69.6 °F /  20.9 °C 56.5 °F /  13.6 °C 29.97in /  1014.8hPa North 5mph /  8km/h 8mph /  12.9km/h 63% 0.00in /  0mm 450 W/m2
10:50 70 °F /  21.1 °C 56.8 °F /  13.8 °C 29.97in /  1014.8hPa NNE 2mph /  3.2km/h 12mph /  19.3km/h 63% 0.00in /  0mm 400 W/m2
11:00 70.3 °F /  21.3 °C 57.1 °F /  13.9 °C 29.98in /  1015.1hPa North 6mph /  9.7km/h 14mph /  22.5km/h 63% 0.00in /  0mm 406 W/m2
11:10 70.5 °F /  21.4 °C 57.3 °F /  14.1 °C 29.97in /  1014.8hPa North 6mph /  9.7km/h 14mph /  22.5km/h 63% 0.00in /  0mm 358 W/m2
11:20 70.7 °F /  21.5 °C 57.5 °F /  14.2 °C 29.97in /  1014.8hPa North 5mph /  8km/h 13mph /  20.9km/h 63% 0.00in /  0mm 564 W/m2
11:30 71.4 °F /  21.9 °C 57.7 °F /  14.3 °C 29.97in /  1014.8hPa North 6mph /  9.7km/h 11mph /  17.7km/h 62% 0.00in /  0mm 548 W/m2
11:40 71.9 °F /  22.2 °C 58.1 °F /  14.5 °C 29.97in /  1014.8hPa North 3mph /  4.8km/h 11mph /  17.7km/h 62% 0.00in /  0mm 946 W/m2
11:50 72.9 °F /  22.7 °C 58.7 °F /  14.8 °C 29.97in /  1014.8hPa NNE 6mph /  9.7km/h 12mph /  19.3km/h 61% 0.00in /  0mm 770 W/m2
12:00 73.8 °F /  23.2 °C 59.1 °F /  15.1 °C 29.97in /  1014.8hPa NNE 5mph /  8km/h 13mph /  20.9km/h 60% 0.00in /  0mm 956 W/m2
12:10 74.3 °F /  23.5 °C 59 °F /  15 °C 29.96in /  1014.4hPa North 2mph /  3.2km/h 12mph /  19.3km/h 59% 0.00in /  0mm 625 W/m2
12:20 74.8 °F /  23.8 °C 59.5 °F /  15.3 °C 29.96in /  1014.4hPa NNE 8mph /  12.9km/h 12mph /  19.3km/h 59% 0.00in /  0mm 892 W/m2
12:30 75.2 °F /  24 °C 59.4 °F /  15.2 °C 29.95in /  1014.1hPa NNE 6mph /  9.7km/h 9mph /  14.5km/h 58% 0.00in /  0mm 938 W/m2
12:40 75.6 °F /  24.2 °C 59.7 °F /  15.4 °C 29.95in /  1014.1hPa NNE 8mph /  12.9km/h 16mph /  25.7km/h 58% 0.00in /  0mm 660 W/m2
12:50 75.7 °F /  24.3 °C 59.9 °F /  15.5 °C 29.95in /  1014.1hPa NNE 6mph /  9.7km/h 12mph /  19.3km/h 58% 0.00in /  0mm 469 W/m2
13:00 76.6 °F /  24.8 °C 60.7 °F /  15.9 °C 29.95in /  1014.1hPa North 2mph /  3.2km/h 13mph /  20.9km/h 58% 0.00in /  0mm 466 W/m2
13:10 77.2 °F /  25.1 °C 60.8 °F /  16 °C 29.95in /  1014.1hPa NNE 5mph /  8km/h 11mph /  17.7km/h 57% 0.00in /  0mm 946 W/m2
13:20 77.9 °F /  25.5 °C 61.4 °F /  16.3 °C 29.94in /  1013.8hPa North 7mph /  11.3km/h 13mph /  20.9km/h 57% 0.00in /  0mm 938 W/m2
13:30 77.7 °F /  25.4 °C 61.3 °F /  16.3 °C 29.94in /  1013.8hPa NNE 3mph /  4.8km/h 12mph /  19.3km/h 57% 0.00in /  0mm 426 W/m2
13:40 78.2 °F /  25.7 °C 62.2 °F /  16.8 °C 29.94in /  1013.8hPa North 5mph /  8km/h 9mph /  14.5km/h 58% 0.00in /  0mm 918 W/m2
13:50 78.4 °F /  25.8 °C 62.4 °F /  16.9 °C 29.93in /  1013.4hPa NNW 2mph /  3.2km/h 10mph /  16.1km/h 58% 0.00in /  0mm 542 W/m2
14:00 78.6 °F /  25.9 °C 61.6 °F /  16.4 °C 29.93in /  1013.4hPa North 2mph /  3.2km/h 11mph /  17.7km/h 56% 0.00in /  0mm 550 W/m2
14:10 78.8 °F /  26 °C 62.3 °F /  16.8 °C 29.93in /  1013.4hPa NNE 5mph /  8km/h 11mph /  17.7km/h 57% 0.00in /  0mm 666 W/m2
14:20 79.2 °F /  26.2 °C 62.6 °F /  17 °C 29.93in /  1013.4hPa North 5mph /  8km/h 12mph /  19.3km/h 57% 0.00in /  0mm 862 W/m2
14:30 79.9 °F /  26.6 °C 62.3 °F /  16.8 °C 29.92in /  1013.1hPa NNE 2mph /  3.2km/h 12mph /  19.3km/h 55% 0.00in /  0mm 289 W/m2
14:40 79.3 °F /  26.3 °C 61.8 °F /  16.6 °C 29.92in /  1013.1hPa North 5mph /  8km/h 10mph /  16.1km/h 55% 0.00in /  0mm 825 W/m2
14:50 79.8 °F /  26.6 °C 62.7 °F /  17.1 °C 29.92in /  1013.1hPa NNE 5mph /  8km/h 12mph /  19.3km/h 56% 0.00in /  0mm 558 W/m2
15:00 80.3 °F /  26.8 °C 62.7 °F /  17.1 °C 29.92in /  1013.1hPa NNE 3mph /  4.8km/h 12mph /  19.3km/h 55% 0.00in /  0mm 749 W/m2
15:10 80.8 °F /  27.1 °C 63.1 °F /  17.3 °C 29.93in /  1013.4hPa NNE 3mph /  4.8km/h 12mph /  19.3km/h 55% 0.00in /  0mm 689 W/m2
15:20 80.6 °F /  27 °C 62.4 °F /  16.9 °C 29.93in /  1013.4hPa NNE 5mph /  8km/h 9mph /  14.5km/h 54% 0.00in /  0mm 431 W/m2
15:30 80.5 °F /  26.9 °C 62.9 °F /  17.2 °C 29.92in /  1013.1hPa North 3mph /  4.8km/h 12mph /  19.3km/h 55% 0.00in /  0mm 680 W/m2
15:40 80.2 °F /  26.8 °C 62.1 °F /  16.7 °C 29.92in /  1013.1hPa North 5mph /  8km/h 9mph /  14.5km/h 54% 0.00in /  0mm 251 W/m2
15:50 79.7 °F /  26.5 °C 62.1 °F /  16.7 °C 29.92in /  1013.1hPa North 5mph /  8km/h 10mph /  16.1km/h 55% 0.00in /  0mm 281 W/m2
16:00 79.8 °F /  26.6 °C 63.2 °F /  17.3 °C 29.92in /  1013.1hPa NNE 6mph /  9.7km/h 11mph /  17.7km/h 57% 0.00in /  0mm 635 W/m2
16:10 80.4 °F /  26.9 °C 62.8 °F /  17.1 °C 29.92in /  1013.1hPa NNE 6mph /  9.7km/h 9mph /  14.5km/h 55% 0.00in /  0mm 575 W/m2
16:20 80.8 °F /  27.1 °C 63.1 °F /  17.3 °C 29.92in /  1013.1hPa North 6mph /  9.7km/h 9mph /  14.5km/h 55% 0.00in /  0mm 550 W/m2
16:30 80.8 °F /  27.1 °C 63.1 °F /  17.3 °C 29.92in /  1013.1hPa North 2mph /  3.2km/h 9mph /  14.5km/h 55% 0.00in /  0mm 515 W/m2
16:40 81.1 °F /  27.3 °C 62.9 °F /  17.2 °C 29.92in /  1013.1hPa North 2mph /  3.2km/h 10mph /  16.1km/h 54% 0.00in /  0mm 475 W/m2
16:50 81.5 °F /  27.5 °C 63.3 °F /  17.4 °C 29.92in /  1013.1hPa North 3mph /  4.8km/h 9mph /  14.5km/h 54% 0.00in /  0mm 441 W/m2
17:00 81.4 °F /  27.4 °C 63.2 °F /  17.3 °C 29.92in /  1013.1hPa North 3mph /  4.8km/h 12mph /  19.3km/h 54% 0.00in /  0mm 407 W/m2
17:10 81.3 °F /  27.4 °C 63.1 °F /  17.3 °C 29.92in /  1013.1hPa North 5mph /  8km/h 12mph /  19.3km/h 54% 0.00in /  0mm 377 W/m2
17:20 81.3 °F /  27.4 °C 63.1 °F /  17.3 °C 29.92in /  1013.1hPa North 2mph /  3.2km/h 9mph /  14.5km/h 54% 0.00in /  0mm 278 W/m2
17:30 80.8 °F /  27.1 °C 62.6 °F /  17 °C 29.92in /  1013.1hPa North 5mph /  8km/h 8mph /  12.9km/h 54% 0.00in /  0mm 289 W/m2
17:40 80.4 °F /  26.9 °C 62.8 °F /  17.1 °C 29.92in /  1013.1hPa North 3mph /  4.8km/h 9mph /  14.5km/h 55% 0.00in /  0mm 285 W/m2
17:50 80.4 °F /  26.9 °C 62.8 °F /  17.1 °C 29.93in /  1013.4hPa NNW 2mph /  3.2km/h 7mph /  11.3km/h 55% 0.00in /  0mm 251 W/m2
18:00 80.2 °F /  26.8 °C 62.6 °F /  17 °C 29.93in /  1013.4hPa North 3mph /  4.8km/h 9mph /  14.5km/h 55% 0.00in /  0mm 189 W/m2
18:10 79.4 °F /  26.3 °C 61.8 °F /  16.6 °C 29.92in /  1013.1hPa North 5mph /  8km/h 9mph /  14.5km/h 55% 0.00in /  0mm 98 W/m2
18:20 78.1 °F /  25.6 °C 61.2 °F /  16.2 °C 29.92in /  1013.1hPa North 3mph /  4.8km/h 8mph /  12.9km/h 56% 0.00in /  0mm 85 W/m2
18:30 77.2 °F /  25.1 °C 60.8 °F /  16 °C 29.92in /  1013.1hPa NNW 3mph /  4.8km/h 7mph /  11.3km/h 57% 0.00in /  0mm 111 W/m2
18:40 76.8 °F /  24.9 °C 60.9 °F /  16.1 °C 29.92in /  1013.1hPa NNW 3mph /  4.8km/h 8mph /  12.9km/h 58% 0.00in /  0mm 123 W/m2
18:50 76.3 °F /  24.6 °C 60.9 °F /  16.1 °C 29.93in /  1013.4hPa NNW 2mph /  3.2km/h 9mph /  14.5km/h 59% 0.00in /  0mm 64 W/m2
19:00 75.4 °F /  24.1 °C 60.5 °F /  15.8 °C 29.93in /  1013.4hPa North 3mph /  4.8km/h 7mph /  11.3km/h 60% 0.00in /  0mm 46 W/m2
19:10 74.5 °F /  23.6 °C 59.7 °F /  15.4 °C 29.93in /  1013.4hPa North 5mph /  8km/h 11mph /  17.7km/h 60% 0.00in /  0mm 49 W/m2
19:20 73.8 °F /  23.2 °C 59.9 °F /  15.5 °C 29.93in /  1013.4hPa North 3mph /  4.8km/h 11mph /  17.7km/h 62% 0.00in /  0mm 39 W/m2
19:30 73.2 °F /  22.9 °C 59.9 °F /  15.5 °C 29.94in /  1013.8hPa NNW 3mph /  4.8km/h 8mph /  12.9km/h 63% 0.00in /  0mm 29 W/m2
19:40 72.7 °F /  22.6 °C 59.4 °F /  15.2 °C 29.94in /  1013.8hPa NNW 3mph /  4.8km/h 9mph /  14.5km/h 63% 0.00in /  0mm 15 W/m2
19:50 72 °F /  22.2 °C 59.1 °F /  15.1 °C 29.94in /  1013.8hPa NNW 3mph /  4.8km/h 8mph /  12.9km/h 64% 0.00in /  0mm 8 W/m2
20:00 71.2 °F /  21.8 °C 58.9 °F /  14.9 °C 29.94in /  1013.8hPa NNW 2mph /  3.2km/h 7mph /  11.3km/h 65% 0.00in /  0mm 0 W/m2
20:10 70.7 °F /  21.5 °C 58.4 °F /  14.7 °C 29.94in /  1013.8hPa NNW 2mph /  3.2km/h 7mph /  11.3km/h 65% 0.00in /  0mm 0 W/m2
20:20 70 °F /  21.1 °C 58.6 °F /  14.8 °C 29.94in /  1013.8hPa NNW 5mph /  8km/h 9mph /  14.5km/h 67% 0.00in /  0mm 0 W/m2
20:30 69.5 °F /  20.8 °C 58.1 °F /  14.5 °C 29.95in /  1014.1hPa NW 3mph /  4.8km/h 7mph /  11.3km/h 67% 0.00in /  0mm 0 W/m2
20:40 69.1 °F /  20.6 °C 58.1 °F /  14.5 °C 29.95in /  1014.1hPa NW 1mph /  1.6km/h 6mph /  9.7km/h 68% 0.00in /  0mm 0 W/m2
20:50 68.5 °F /  20.3 °C 58 °F /  14.4 °C 29.96in /  1014.4hPa NW 2mph /  3.2km/h 4mph /  6.4km/h 69% 0.00in /  0mm 0 W/m2
21:00 68.2 °F /  20.1 °C 57.6 °F /  14.2 °C 29.96in /  1014.4hPa NW 1mph /  1.6km/h 4mph /  6.4km/h 69% 0.00in /  0mm 0 W/m2
21:10 67.6 °F /  19.8 °C 57.1 °F /  13.9 °C 29.96in /  1014.4hPa NW 1mph /  1.6km/h 3mph /  4.8km/h 69% 0.00in /  0mm 0 W/m2
21:20 67.2 °F /  19.6 °C 57 °F /  13.9 °C 29.97in /  1014.8hPa West 2mph /  3.2km/h 5mph /  8km/h 70% 0.00in /  0mm 0 W/m2
21:30 66.6 °F /  19.2 °C 57.6 °F /  14.2 °C 29.97in /  1014.8hPa NW 3mph /  4.8km/h 6mph /  9.7km/h 73% 0.00in /  0mm 0 W/m2
21:40 66 °F /  18.9 °C 57.1 °F /  13.9 °C 29.97in /  1014.8hPa WNW 2mph /  3.2km/h 6mph /  9.7km/h 73% 0.00in /  0mm 0 W/m2
21:50 65.5 °F /  18.6 °C 57 °F /  13.9 °C 29.98in /  1015.1hPa WNW 1mph /  1.6km/h 5mph /  8km/h 74% 0.00in /  0mm 0 W/m2
22:00 65 °F /  18.3 °C 56.5 °F /  13.6 °C 29.98in /  1015.1hPa WNW 2mph /  3.2km/h 5mph /  8km/h 74% 0.00in /  0mm 0 W/m2
22:10 64.5 °F /  18.1 °C 56.4 °F /  13.6 °C 29.99in /  1015.5hPa WNW 3mph /  4.8km/h 7mph /  11.3km/h 75% 0.00in /  0mm 0 W/m2
22:20 64 °F /  17.8 °C 56.7 °F /  13.7 °C 29.99in /  1015.5hPa NW 2mph /  3.2km/h 7mph /  11.3km/h 77% 0.00in /  0mm 0 W/m2
22:30 63.7 °F /  17.6 °C 56.3 °F /  13.5 °C 29.99in /  1015.5hPa NNW 2mph /  3.2km/h 6mph /  9.7km/h 77% 0.00in /  0mm 0 W/m2
22:40 63.5 °F /  17.5 °C 56.5 °F /  13.6 °C 29.99in /  1015.5hPa Calm   5mph /  8km/h 78% 0.00in /  0mm 0 W/m2
23:00 62.7 °F /  17.1 °C 56 °F /  13.3 °C 29.99in /  1015.5hPa Calm   2mph /  3.2km/h 79% 0.00in /  0mm 0 W/m2
23:10 62.2 °F /  16.8 °C 55.6 °F /  13.1 °C 30.00in /  1015.8hPa Calm   2mph /  3.2km/h 79% 0.00in /  0mm 0 W/m2
23:20 61.9 °F /  16.6 °C 55.6 °F /  13.1 °C 30.00in /  1015.8hPa Calm   2mph /  3.2km/h 80% 0.00in /  0mm 0 W/m2
23:30 61.5 °F /  16.4 °C 55.3 °F /  12.9 °C 30.00in /  1015.8hPa WNW 1mph /  1.6km/h 2mph /  3.2km/h 80% 0.00in /  0mm 0 W/m2
23:40 61.2 °F /  16.2 °C 54.9 °F /  12.7 °C 30.00in /  1015.8hPa Calm   2mph /  3.2km/h 80% 0.00in /  0mm 0 W/m2
23:50 60.8 °F /  16 °C 54.9 °F /  12.7 °C 30.00in /  1015.8hPa Calm   2mph /  3.2km/h 81% 0.00in /  0mm 0 W/m2
Knjazevac, Serbia
Compliments of Weather Underground - 2 mb